createdAt,value
2019-03-10T00:03:44.957Z,72.70
2019-03-10T00:08:50.319Z,72.40
2019-03-10T00:13:55.695Z,72.30
2019-03-10T00:19:01.092Z,72.00
2019-03-10T00:24:06.497Z,71.70
2019-03-10T00:29:11.971Z,71.50
2019-03-10T00:34:17.483Z,71.50
2019-03-10T00:40:00.705Z,71.40
2019-03-10T00:45:50.453Z,71.20
2019-03-10T00:51:48.376Z,71.10
2019-03-10T00:56:53.766Z,71.00
2019-03-10T01:01:59.214Z,71.10
2019-03-10T01:07:04.575Z,71.10
2019-03-10T01:12:10.117Z,71.10
2019-03-10T01:17:15.493Z,71.20
2019-03-10T01:22:20.960Z,71.90
2019-03-10T01:27:26.315Z,71.10
2019-03-10T01:33:12.301Z,71.20
2019-03-10T01:38:17.815Z,71.20
2019-03-10T01:43:23.190Z,71.30
2019-03-10T01:48:28.615Z,71.20
2019-03-10T01:53:34.000Z,71.20
2019-03-10T01:58:39.400Z,71.10
2019-03-10T02:03:44.763Z,71.10
2019-03-10T02:08:50.162Z,71.10
2019-03-10T02:13:55.538Z,71.80
2019-03-10T02:19:00.941Z,71.10
2019-03-10T02:24:06.326Z,71.00
2019-03-10T02:29:11.699Z,71.10
2019-03-10T02:34:17.074Z,71.00
2019-03-10T02:39:22.448Z,71.00
2019-03-10T02:44:27.851Z,71.00
2019-03-10T02:49:33.238Z,71.00
2019-03-10T02:54:38.671Z,70.80
2019-03-10T02:59:44.142Z,70.70
2019-03-10T03:04:49.625Z,70.60
2019-03-10T03:09:55.290Z,70.40
2019-03-10T03:15:00.696Z,69.20
2019-03-10T03:20:06.437Z,68.40
2019-03-10T03:25:11.854Z,68.30
2019-03-10T03:30:17.506Z,68.90
2019-03-10T03:36:00.226Z,69.70
2019-03-10T03:41:09.885Z,70.40
2019-03-10T03:46:15.579Z,70.80
2019-03-10T03:51:21.065Z,71.40
2019-03-10T03:56:26.448Z,72.70
2019-03-10T04:01:36.040Z,72.60
2019-03-10T04:06:41.434Z,73.40
2019-03-10T04:11:46.840Z,73.70
2019-03-10T04:16:52.235Z,73.80
2019-03-10T04:21:57.600Z,74.20
2019-03-10T04:27:03.000Z,74.50
2019-03-10T04:32:08.366Z,74.90
2019-03-10T04:37:13.771Z,75.20
2019-03-10T04:42:19.165Z,75.50
2019-03-10T04:47:24.564Z,75.70
2019-03-10T04:52:29.912Z,76.00
2019-03-10T04:57:35.290Z,76.30
2019-03-10T05:02:40.668Z,76.80
2019-03-10T05:07:46.068Z,76.80
2019-03-10T05:12:51.508Z,76.80
2019-03-10T05:17:56.907Z,77.10
2019-03-10T05:23:38.414Z,77.70
2019-03-10T05:28:47.945Z,78.10
2019-03-10T05:33:53.303Z,78.70
2019-03-10T05:38:58.745Z,78.90
2019-03-10T05:44:04.161Z,79.10
2019-03-10T05:49:09.580Z,79.40
2019-03-10T05:54:14.959Z,80.00
2019-03-10T05:59:20.348Z,80.50
2019-03-10T06:04:25.711Z,81.20
2019-03-10T06:09:31.020Z,81.90
2019-03-10T06:14:36.400Z,82.70
2019-03-10T06:19:41.862Z,82.70
2019-03-10T06:24:47.171Z,83.30
2019-03-10T06:29:52.557Z,83.30
2019-03-10T06:34:58.005Z,83.90
2019-03-10T06:40:03.472Z,84.00
2019-03-10T06:45:08.870Z,84.80
2019-03-10T06:50:14.295Z,85.50
2019-03-10T06:55:19.624Z,85.50
2019-03-10T07:00:25.037Z,85.40
2019-03-10T07:05:30.673Z,85.50
2019-03-10T07:10:36.008Z,85.50
2019-03-10T07:15:41.395Z,86.10
2019-03-10T07:20:46.799Z,85.70
2019-03-10T07:26:08.086Z,85.70
2019-03-10T07:31:41.186Z,85.30
2019-03-10T07:36:57.027Z,85.80
2019-03-10T07:42:21.300Z,86.00
2019-03-10T07:47:42.406Z,85.90
2019-03-10T07:53:04.305Z,85.50
2019-03-10T07:58:31.252Z,85.10
2019-03-10T08:03:53.986Z,85.10
2019-03-10T08:09:23.177Z,84.90
2019-03-10T08:14:49.403Z,84.60
2019-03-10T08:20:31.754Z,83.50
2019-03-10T08:25:59.136Z,83.20
2019-03-10T08:31:35.082Z,78.40
2019-03-10T08:36:50.450Z,76.70
2019-03-10T08:42:20.984Z,68.50
2019-03-10T08:47:51.273Z,67.90
2019-03-10T08:53:02.173Z,70.00
2019-03-10T08:58:29.274Z,71.10
2019-03-10T09:03:52.012Z,71.90
2019-03-10T09:09:19.136Z,66.40
2019-03-10T09:14:41.614Z,65.10
2019-03-10T09:19:55.453Z,66.80
2019-03-10T09:25:14.388Z,68.00
2019-03-10T09:30:37.457Z,69.80
2019-03-10T09:36:00.475Z,70.80
2019-03-10T09:41:23.440Z,71.90
2019-03-10T09:46:37.657Z,73.20
2019-03-10T09:52:00.670Z,74.20
2019-03-10T09:57:23.696Z,74.70
2019-03-10T10:02:39.697Z,75.10
2019-03-10T10:08:25.535Z,75.10
2019-03-10T10:13:41.934Z,74.30
2019-03-10T10:18:57.501Z,71.10
2019-03-10T10:24:17.503Z,68.00
2019-03-10T10:29:50.679Z,65.90
2019-03-10T10:35:06.738Z,64.20
2019-03-10T10:40:37.198Z,65.40
2019-03-10T10:46:00.175Z,67.30
2019-03-10T10:51:33.186Z,69.20
2019-03-10T10:57:00.267Z,71.00
2019-03-10T11:02:15.028Z,72.30
2019-03-10T11:07:35.267Z,72.20
2019-03-10T11:13:11.710Z,72.10
2019-03-10T11:18:38.778Z,72.40
2019-03-10T11:24:02.442Z,72.40
2019-03-10T11:29:17.327Z,71.50
2019-03-10T11:34:39.646Z,68.70
2019-03-10T11:40:02.628Z,65.50
2019-03-10T11:45:26.574Z,64.20
2019-03-10T11:50:51.051Z,63.40
2019-03-10T11:56:13.800Z,64.20
2019-03-10T12:01:41.120Z,64.50
2019-03-10T12:07:08.526Z,62.60
2019-03-10T12:12:13.841Z,61.10
2019-03-10T12:17:19.305Z,60.90
2019-03-10T12:22:24.854Z,60.50
2019-03-10T12:27:30.324Z,59.70
2019-03-10T12:32:35.896Z,58.90
2019-03-10T12:37:41.299Z,59.40
2019-03-10T12:42:46.838Z,60.30
2019-03-10T12:47:52.287Z,60.20
2019-03-10T12:52:57.693Z,61.00
2019-03-10T12:58:03.063Z,61.50
2019-03-10T13:03:08.585Z,62.50
2019-03-10T13:08:13.963Z,61.70
2019-03-10T13:13:19.379Z,61.10
2019-03-10T13:18:24.760Z,60.30
2019-03-10T13:23:30.155Z,59.60
2019-03-10T13:28:35.589Z,58.60
2019-03-10T13:33:41.071Z,57.90
2019-03-10T13:38:46.522Z,56.00
2019-03-10T13:43:51.923Z,54.40
2019-03-10T13:48:57.337Z,54.80
2019-03-10T13:54:02.757Z,54.60
2019-03-10T13:59:08.244Z,54.20
2019-03-10T14:04:13.654Z,54.30
2019-03-10T14:09:19.107Z,53.50
2019-03-10T14:14:24.561Z,52.30
2019-03-10T14:19:30.009Z,50.90
2019-03-10T14:24:35.375Z,49.50
2019-03-10T14:29:40.835Z,50.00
2019-03-10T14:34:46.246Z,49.30
2019-03-10T14:39:51.592Z,49.00
2019-03-10T14:44:56.961Z,47.10
2019-03-10T14:50:02.368Z,48.50
2019-03-10T14:55:08.957Z,48.70
2019-03-10T15:00:18.241Z,49.70
2019-03-10T15:05:23.742Z,49.80
2019-03-10T15:10:29.333Z,50.60
2019-03-10T15:15:34.803Z,49.90
2019-03-10T15:20:40.241Z,50.60
2019-03-10T15:25:45.673Z,51.20
2019-03-10T15:30:51.078Z,51.90
2019-03-10T15:35:56.586Z,52.20
2019-03-10T15:41:01.997Z,51.70
2019-03-10T15:46:07.548Z,52.10
2019-03-10T15:51:13.226Z,52.20
2019-03-10T15:56:18.605Z,52.30
2019-03-10T16:01:24.371Z,52.90
2019-03-10T16:06:29.742Z,53.50
2019-03-10T16:11:35.201Z,54.10
2019-03-10T16:16:40.683Z,54.20
2019-03-10T16:21:46.117Z,54.10
2019-03-10T16:26:51.664Z,54.00
2019-03-10T16:31:57.177Z,54.40
2019-03-10T16:37:02.541Z,54.70
2019-03-10T16:42:07.976Z,55.10
2019-03-10T16:47:13.424Z,55.70
2019-03-10T16:52:18.840Z,56.20
2019-03-10T16:57:25.010Z,56.50
2019-03-10T17:02:30.429Z,56.70
2019-03-10T17:07:35.967Z,57.00
2019-03-10T17:12:41.539Z,57.50
2019-03-10T17:17:47.002Z,58.10
2019-03-10T17:22:52.402Z,58.20
2019-03-10T17:27:58.108Z,58.60
2019-03-10T17:33:03.707Z,58.80
2019-03-10T17:38:11.072Z,59.30
2019-03-10T17:43:16.486Z,59.30
2019-03-10T17:48:21.923Z,59.30
2019-03-10T17:53:27.460Z,59.10
2019-03-10T17:58:34.016Z,59.00
2019-03-10T18:03:39.713Z,58.60
2019-03-10T18:08:45.108Z,58.00
2019-03-10T18:13:50.490Z,58.00
2019-03-10T18:18:55.891Z,58.40
2019-03-10T18:24:01.255Z,58.70
2019-03-10T18:29:06.639Z,58.70
2019-03-10T18:34:12.007Z,58.70
2019-03-10T18:39:17.375Z,58.70
2019-03-10T18:44:23.700Z,58.80
2019-03-10T18:49:29.074Z,58.70
2019-03-10T18:54:34.504Z,58.50
2019-03-10T18:59:40.164Z,57.80
2019-03-10T19:04:45.584Z,57.80
2019-03-10T19:09:51.022Z,57.70
2019-03-10T19:14:56.414Z,57.80
2019-03-10T19:20:01.913Z,57.90
2019-03-10T19:25:07.648Z,58.10
2019-03-10T19:30:15.467Z,58.30
2019-03-10T19:35:21.015Z,58.40
2019-03-10T19:40:26.392Z,58.60
2019-03-10T19:45:31.913Z,59.00
2019-03-10T19:50:37.297Z,61.10
2019-03-10T19:55:42.652Z,63.50
2019-03-10T20:00:48.096Z,65.70
2019-03-10T20:05:53.537Z,67.20
2019-03-10T20:10:58.977Z,67.80
2019-03-10T20:16:06.438Z,69.10
2019-03-10T20:21:12.152Z,70.00
2019-03-10T20:26:17.640Z,70.80
2019-03-10T20:31:23.030Z,71.70
2019-03-10T20:36:28.827Z,72.20
2019-03-10T20:41:34.344Z,72.00
2019-03-10T20:46:39.799Z,72.30
2019-03-10T20:51:45.177Z,73.20
2019-03-10T20:56:50.562Z,73.70
2019-03-10T21:01:55.952Z,74.20
2019-03-10T21:07:01.335Z,74.00
2019-03-10T21:12:06.679Z,74.40
2019-03-10T21:17:12.081Z,74.10
2019-03-10T21:22:17.486Z,74.20
2019-03-10T21:27:22.838Z,74.70
2019-03-10T21:32:28.246Z,75.30
2019-03-10T21:37:33.597Z,75.60
2019-03-10T21:42:38.966Z,76.30
2019-03-10T21:47:44.411Z,77.30
2019-03-10T21:52:49.795Z,78.70
2019-03-10T21:57:55.202Z,78.60
2019-03-10T22:03:00.755Z,78.90
2019-03-10T22:08:06.158Z,79.30
2019-03-10T22:13:11.551Z,79.70
2019-03-10T22:18:16.969Z,80.40
2019-03-10T22:23:22.369Z,80.40
2019-03-10T22:28:27.753Z,80.00
2019-03-10T22:33:33.216Z,80.30
2019-03-10T22:38:38.698Z,80.60
2019-03-10T22:43:44.083Z,80.80
2019-03-10T22:48:49.669Z,80.80
2019-03-10T22:53:55.044Z,80.70
2019-03-10T22:59:00.454Z,80.50
2019-03-10T23:04:05.837Z,80.80
2019-03-10T23:09:11.390Z,79.70
2019-03-10T23:14:16.751Z,79.20
2019-03-10T23:19:22.223Z,79.00
2019-03-10T23:24:27.594Z,78.60
2019-03-10T23:29:33.056Z,78.30
2019-03-10T23:34:38.413Z,78.20
2019-03-10T23:39:43.797Z,78.00
2019-03-10T23:44:49.194Z,77.60
2019-03-10T23:49:54.633Z,77.40
2019-03-10T23:55:00.006Z,76.70
